Time;durP1;ratioP1;P1;durP2;ratioP2;P2;SDS_P1;SDS_P2;PMS_P1;PMS_P2;Temp;Humidity;BMP_temperature;BMP_pressure;BME280_temperature;BME280_humidity;BME280_pressure;Samples;Min_cycle;Max_cycle;Signal;HPM_P1;HPM_P2
2024/01/09 00:11:00;;;;;;;5.95;4.28;;;;;;;20.27;52.15;101065.19;41275192;28;20053;-73
2024/01/09 00:31:02;;;;;;;4.82;3.83;;;;;;;20.17;52.99;101093.00;41416928;28;20041;-72
2024/01/09 00:51:03;;;;;;;4.78;3.70;;;;;;;20.13;52.77;101129.16;41367333;28;20058;-73
2024/01/09 01:11:06;;;;;;;6.07;3.65;;;;;;;20.05;52.88;101142.75;41372780;28;20068;-72
2024/01/09 01:31:06;;;;;;;4.20;3.20;;;;;;;20.09;52.63;101161.81;41370665;28;20093;-73
2024/01/09 01:51:07;;;;;;;4.57;3.30;;;;;;;20.09;52.26;101180.22;41367027;28;20074;-73
2024/01/09 02:11:08;;;;;;;4.47;3.08;;;;;;;20.13;52.40;101189.63;41356472;28;20041;-72
2024/01/09 02:31:09;;;;;;;3.85;2.78;;;;;;;20.12;52.17;101190.56;41365955;28;20049;-73
2024/01/09 02:51:09;;;;;;;2.92;2.63;;;;;;;20.11;52.28;101204.66;41396271;28;20054;-73
2024/01/09 03:11:10;;;;;;;3.60;2.65;;;;;;;20.10;52.21;101221.34;41396762;28;20046;-74
2024/01/09 03:31:23;;;;;;;4.03;2.78;;;;;;;20.13;51.85;101229.06;41380675;28;20069;-73
2024/01/09 03:51:24;;;;;;;3.00;2.30;;;;;;;20.17;51.60;101251.59;41373573;28;20528;-72
2024/01/09 04:11:24;;;;;;;2.95;2.40;;;;;;;20.09;51.70;101285.38;41333711;28;1114163;-72
2024/01/09 04:31:24;;;;;;;2.83;2.20;;;;;;;20.11;51.66;101308.03;41374395;28;20475;-73
2024/01/09 04:51:25;;;;;;;2.67;1.98;;;;;;;20.15;51.19;101314.81;41298224;28;20042;-75
2024/01/09 05:11:25;;;;;;;3.60;2.20;;;;;;;20.18;50.91;101329.56;41379152;28;20064;-78
2024/01/09 05:31:26;;;;;;;7.75;2.90;;;;;;;20.79;50.53;101361.94;41361580;28;20114;-74
2024/01/09 05:51:26;;;;;;;24.50;4.57;;;;;;;20.99;48.84;101388.00;41326800;28;20061;-73
2024/01/09 06:11:27;;;;;;;9.73;3.30;;;;;;;20.04;41.20;101408.38;41301356;28;20046;-69
2024/01/09 06:31:28;;;;;;;15.10;3.35;;;;;;;20.93;43.56;101447.13;41305036;28;20127;-75
2024/01/09 06:51:29;;;;;;;15.43;3.33;;;;;;;21.10;44.87;101472.47;41302546;28;20085;-71
2024/01/09 07:11:30;;;;;;;10.07;2.97;;;;;;;21.18;45.08;101504.47;41376582;28;20046;-70
2024/01/09 07:31:30;;;;;;;7.18;2.70;;;;;;;21.18;45.43;101533.44;41383172;28;20084;-70
2024/01/09 07:51:30;;;;;;;7.03;3.22;;;;;;;21.23;44.88;101552.44;41375711;28;20049;-69
2024/01/09 08:11:31;;;;;;;8.57;3.72;;;;;;;21.05;45.65;101567.53;41373325;28;20371;-73
2024/01/09 08:31:32;;;;;;;7.00;3.97;;;;;;;21.49;45.40;101597.47;41411550;28;20074;-72
2024/01/09 08:51:33;;;;;;;7.18;3.97;;;;;;;21.58;45.54;101625.97;41387014;28;20049;-73
2024/01/09 09:11:34;;;;;;;6.45;4.30;;;;;;;21.56;45.63;101637.50;41383233;28;20046;-71
2024/01/09 09:31:35;;;;;;;7.95;4.68;;;;;;;21.47;43.86;101648.56;41388087;28;20077;-71
2024/01/09 09:51:36;;;;;;;6.93;5.28;;;;;;;21.52;45.43;101650.00;41417690;28;20145;-73
2024/01/09 10:11:36;;;;;;;6.75;4.95;;;;;;;21.57;45.21;101653.25;41400853;28;20046;-78
2024/01/09 10:31:41;;;;;;;8.02;5.35;;;;;;;21.68;44.69;101655.25;41403655;28;20537;-72
2024/01/09 10:51:42;;;;;;;9.85;6.10;;;;;;;21.94;43.65;101660.75;41389076;28;20081;-71
2024/01/09 11:11:51;;;;;;;8.32;5.45;;;;;;;22.21;43.32;101666.13;41405446;28;20050;-75
2024/01/09 11:31:52;;;;;;;6.07;5.18;;;;;;;22.36;43.68;101661.69;41432194;28;20046;-75
2024/01/09 11:51:55;;;;;;;7.28;5.30;;;;;;;22.18;43.70;101658.41;41442352;28;20045;-76
2024/01/09 12:12:01;;;;;;;5.20;4.50;;;;;;;22.01;43.58;101666.50;41452722;28;20088;-75
2024/01/09 12:32:01;;;;;;;6.47;4.30;;;;;;;22.14;43.02;101666.59;41425172;28;20042;-76
2024/01/09 12:52:03;;;;;;;7.15;4.60;;;;;;;22.71;44.58;101679.75;41396193;28;20045;-72
2024/01/09 13:12:06;;;;;;;6.60;4.55;;;;;;;22.76;46.92;101697.13;41389378;28;20052;-76
2024/01/09 13:32:08;;;;;;;9.15;3.90;;;;;;;22.54;46.20;101706.38;41390156;28;20401;-76
2024/01/09 13:52:09;;;;;;;5.60;3.38;;;;;;;22.30;46.04;101724.56;41409489;28;20364;-75
2024/01/09 14:12:10;;;;;;;8.13;3.17;;;;;;;22.06;46.09;101735.66;41449117;28;20046;-77
2024/01/09 14:32:11;;;;;;;5.15;3.05;;;;;;;22.04;45.96;101753.34;41492091;28;20533;-76
2024/01/09 14:52:14;;;;;;;4.63;2.65;;;;;;;21.89;46.15;101765.66;41435562;28;20092;-79
2024/01/09 15:12:14;;;;;;;4.68;2.47;;;;;;;21.77;46.29;101793.59;41477542;28;20038;-77
2024/01/09 15:32:15;;;;;;;5.53;2.40;;;;;;;21.70;45.77;101810.69;41487467;28;20050;-79
2024/01/09 15:52:16;;;;;;;3.05;2.40;;;;;;;21.69;47.35;101822.16;41509668;28;20065;-85
2024/01/09 16:12:17;;;;;;;4.47;2.60;;;;;;;21.53;47.16;101836.22;41498782;28;20152;-83
2024/01/09 16:32:18;;;;;;;3.42;2.35;;;;;;;21.44;47.01;101847.25;41474709;28;20042;-78
2024/01/09 16:52:18;;;;;;;4.10;2.17;;;;;;;21.16;46.53;101871.63;41528361;28;20030;-81
2024/01/09 17:12:19;;;;;;;3.63;2.20;;;;;;;21.18;46.83;101881.13;41522160;28;20042;-82
2024/01/09 17:32:26;;;;;;;4.40;2.67;;;;;;;21.17;47.02;101882.06;41510665;28;20065;-81
2024/01/09 17:52:26;;;;;;;9.65;3.67;;;;;;;21.27;48.40;101899.06;41466547;28;20073;-86
2024/01/09 18:12:28;;;;;;;8.25;4.00;;;;;;;21.09;49.40;101895.66;41541277;28;20139;-88
2024/01/09 18:32:28;;;;;;;10.70;6.13;;;;;;;21.18;50.28;101906.63;41483349;28;20089;-80
2024/01/09 18:52:30;;;;;;;11.52;5.75;;;;;;;21.10;50.47;101926.34;41436372;28;20532;-80
2024/01/09 19:12:30;;;;;;;8.50;5.22;;;;;;;21.13;49.64;101927.09;41456623;28;20058;-76
2024/01/09 19:32:31;;;;;;;9.20;5.25;;;;;;;21.09;48.74;101939.56;41399195;28;20046;-78
2024/01/09 19:52:32;;;;;;;9.48;5.30;;;;;;;21.00;49.25;101955.88;41419353;28;20482;-76
2024/01/09 20:12:37;;;;;;;8.00;5.10;;;;;;;20.89;49.55;101973.06;41401392;28;20038;-76
2024/01/09 20:32:39;;;;;;;9.95;5.53;;;;;;;20.81;49.28;101972.59;41372063;28;20046;-77
2024/01/09 20:52:39;;;;;;;9.25;5.45;;;;;;;20.67;45.64;101988.22;41399634;28;20037;-77
2024/01/09 21:12:40;;;;;;;9.00;5.53;;;;;;;20.71;45.78;101982.69;41391017;28;20075;-77
2024/01/09 21:32:40;;;;;;;8.52;5.20;;;;;;;20.70;46.11;101995.94;41334250;28;20047;-77
2024/01/09 21:52:41;;;;;;;7.22;4.63;;;;;;;20.63;45.91;101995.41;41393498;28;20052;-79
2024/01/09 22:12:41;;;;;;;6.95;5.00;;;;;;;20.52;45.37;102003.81;41388659;28;20061;-79
2024/01/09 22:32:41;;;;;;;8.80;5.63;;;;;;;20.46;45.02;102001.50;41400435;28;20041;-78
2024/01/09 22:52:42;;;;;;;8.63;6.03;;;;;;;20.29;45.31;101986.53;41431865;28;20042;-78
2024/01/09 23:12:42;;;;;;;9.43;5.57;;;;;;;20.34;46.78;101991.56;41387355;28;20413;-77
2024/01/09 23:32:44;;;;;;;7.35;5.50;;;;;;;20.21;47.79;101975.50;41373480;28;20060;-77
2024/01/09 23:52:45;;;;;;;8.20;5.82;;;;;;;20.09;48.88;101963.78;41371830;28;20054;-78
